Time;durP1;ratioP1;P1;durP2;ratioP2;P2;SDS_P1;SDS_P2;PMS_P1;PMS_P2;Temp;Humidity;BMP_temperature;BMP_pressure;BME280_temperature;BME280_humidity;BME280_pressure;Samples;Min_cycle;Max_cycle;Signal;HPM_P1;HPM_P2
2021/05/29 00:00:53;;;;;;;10.30;4.32;;;21.40;54.90;;;;;;5019615;28;20204;-68
2021/05/29 00:03:21;;;;;;;13.65;4.20;;;21.40;55.00;;;;;;5019679;28;20422;-68
2021/05/29 00:05:46;;;;;;;14.45;4.63;;;21.40;54.80;;;;;;5036723;28;20068;-67
2021/05/29 00:08:13;;;;;;;16.60;5.22;;;21.50;55.00;;;;;;5039465;28;20021;-68
2021/05/29 00:10:43;;;;;;;13.15;4.88;;;21.30;54.60;;;;;;5039924;28;20496;-71
2021/05/29 00:13:10;;;;;;;16.08;5.15;;;21.20;54.90;;;;;;5024566;28;20030;-69
2021/05/29 00:15:36;;;;;;;13.60;5.20;;;21.10;54.70;;;;;;5019796;28;20352;-69
2021/05/29 00:18:04;;;;;;;13.52;5.97;;;21.00;54.60;;;;;;5019422;28;20033;-67
2021/05/29 00:20:30;;;;;;;14.63;5.55;;;21.00;54.70;;;;;;5019610;28;20553;-68
2021/05/29 00:22:57;;;;;;;16.20;5.68;;;21.00;54.70;;;;;;5027924;28;20502;-69
2021/05/29 00:25:23;;;;;;;14.48;5.72;;;21.00;54.80;;;;;;5039517;28;20022;-68
2021/05/29 00:27:49;;;;;;;14.30;5.40;;;21.00;54.70;;;;;;5037856;28;20033;-68
2021/05/29 00:30:16;;;;;;;12.45;5.38;;;21.00;54.70;;;;;;5039072;28;20026;-68
2021/05/29 00:32:41;;;;;;;17.48;6.20;;;21.10;54.50;;;;;;5035006;28;20104;-67
2021/05/29 00:35:09;;;;;;;12.82;5.80;;;21.00;54.60;;;;;;5019396;28;20527;-69
2021/05/29 00:37:35;;;;;;;15.77;6.00;;;21.00;54.50;;;;;;5016949;28;20056;-67
2021/05/29 00:40:02;;;;;;;14.73;5.95;;;20.90;54.80;;;;;;5017406;28;20034;-67
2021/05/29 00:42:28;;;;;;;12.15;6.07;;;20.90;54.80;;;;;;5016230;28;20022;-67
2021/05/29 00:44:55;;;;;;;15.00;6.05;;;20.80;54.90;;;;;;5035113;28;20047;-68
2021/05/29 00:47:23;;;;;;;16.83;5.57;;;20.90;55.00;;;;;;5033996;28;20029;-68
2021/05/29 00:49:50;;;;;;;11.52;4.80;;;20.90;55.30;;;;;;5034529;28;20194;-68
2021/05/29 00:52:17;;;;;;;14.82;5.65;;;20.90;55.50;;;;;;5035850;28;20018;-68
2021/05/29 00:54:43;;;;;;;12.95;5.70;;;20.90;55.70;;;;;;5020698;28;20095;-68
2021/05/29 00:57:14;;;;;;;10.43;4.60;;;20.80;55.70;;;;;;5014588;28;20026;-67
2021/05/29 00:59:40;;;;;;;12.88;5.57;;;20.80;55.80;;;;;;5016044;28;20159;-67
2021/05/29 01:02:08;;;;;;;12.95;5.30;;;20.70;56.10;;;;;;5015868;28;20050;-68
2021/05/29 01:04:34;;;;;;;12.95;5.07;;;20.80;56.30;;;;;;5026590;28;20040;-68
2021/05/29 01:07:02;;;;;;;13.85;4.90;;;20.80;56.00;;;;;;5031050;28;20419;-68
2021/05/29 01:09:27;;;;;;;12.90;5.40;;;20.80;56.20;;;;;;5014480;28;20025;-67
2021/05/29 01:11:54;;;;;;;15.52;5.35;;;20.90;56.40;;;;;;5015511;28;20383;-68
2021/05/29 01:14:19;;;;;;;14.77;5.35;;;20.80;56.10;;;;;;5021530;28;20033;-67
2021/05/29 01:16:59;;;;;;;18.40;7.93;;;20.80;56.20;;;;;;5035288;28;20062;-67
2021/05/29 01:19:25;;;;;;;13.10;5.88;;;20.80;55.50;;;;;;5035334;28;20504;-67
2021/05/29 01:21:51;;;;;;;11.90;5.63;;;20.70;55.60;;;;;;5035315;28;20033;-67
2021/05/29 01:24:23;;;;;;;14.80;5.50;;;20.60;55.80;;;;;;5031733;28;20076;-67
2021/05/29 01:26:50;;;;;;;15.07;5.68;;;20.50;55.70;;;;;;5015120;28;20046;-67
2021/05/29 01:29:16;;;;;;;13.68;5.25;;;20.50;55.70;;;;;;5015580;28;20025;-69
2021/05/29 01:31:46;;;;;;;10.95;4.40;;;20.40;55.70;;;;;;5015558;28;20367;-67
2021/05/29 01:34:15;;;;;;;10.02;5.38;;;20.30;55.60;;;;;;5015284;28;20213;-68
2021/05/29 01:36:42;;;;;;;14.73;5.03;;;20.30;56.00;;;;;;5035166;28;20017;-68
2021/05/29 01:39:09;;;;;;;11.23;5.55;;;20.20;56.00;;;;;;5034960;28;20108;-68
2021/05/29 01:41:36;;;;;;;16.55;5.25;;;20.10;56.50;;;;;;5034855;28;20475;-67
2021/05/29 01:44:02;;;;;;;10.93;4.78;;;20.10;56.50;;;;;;5033401;28;20037;-67
2021/05/29 01:46:28;;;;;;;15.18;5.25;;;20.20;56.60;;;;;;5019118;28;20022;-67
2021/05/29 01:48:54;;;;;;;10.35;4.88;;;20.20;56.60;;;;;;5012519;28;20084;-68
2021/05/29 01:51:22;;;;;;;12.55;5.30;;;20.30;56.70;;;;;;5015911;28;20034;-68
2021/05/29 01:53:50;;;;;;;12.30;4.63;;;20.30;56.60;;;;;;5014972;28;20503;-68
2021/05/29 01:56:16;;;;;;;10.23;4.30;;;20.30;56.50;;;;;;5025944;28;20017;-68
2021/05/29 01:58:42;;;;;;;15.15;4.88;;;20.40;56.50;;;;;;5034518;28;20378;-68
2021/05/29 02:01:12;;;;;;;12.85;4.28;;;20.40;56.60;;;;;;5034466;28;20032;-68
2021/05/29 02:03:43;;;;;;;13.32;4.65;;;20.40;56.90;;;;;;5034393;28;20087;-67
2021/05/29 02:06:09;;;;;;;10.13;4.43;;;20.40;56.40;;;;;;5026784;28;20365;-68
2021/05/29 02:08:35;;;;;;;15.65;5.25;;;20.40;56.80;;;;;;5014375;28;20037;-70
2021/05/29 02:11:01;;;;;;;15.43;4.65;;;20.40;56.80;;;;;;5014597;28;20018;-68
2021/05/29 02:13:30;;;;;;;12.10;4.70;;;20.30;56.90;;;;;;5014741;28;20064;-71
2021/05/29 02:15:57;;;;;;;11.65;4.80;;;20.30;56.80;;;;;;5017089;28;20080;-69
2021/05/29 02:18:23;;;;;;;18.02;5.22;;;20.20;56.90;;;;;;5034145;28;20386;-70
2021/05/29 02:21:03;;;;;;;11.27;4.60;;;20.00;57.10;;;;;;5033923;28;20049;-68
2021/05/29 02:23:35;;;;;;;12.05;4.55;;;20.00;57.20;;;;;;5034218;28;20077;-70
2021/05/29 02:26:03;;;;;;;10.48;5.10;;;19.90;57.10;;;;;;5032799;28;20084;-70
2021/05/29 02:28:30;;;;;;;9.85;4.43;;;19.80;57.50;;;;;;5013378;28;20429;-67
2021/05/29 02:30:57;;;;;;;11.23;4.45;;;19.90;57.50;;;;;;5014746;28;20030;-67
2021/05/29 02:33:25;;;;;;;11.95;4.80;;;20.00;57.50;;;;;;5034001;28;20102;-68
2021/05/29 02:35:51;;;;;;;10.25;4.60;;;19.90;57.60;;;;;;5033915;28;20021;-68
2021/05/29 02:38:18;;;;;;;14.90;4.90;;;20.00;57.60;;;;;;5015509;28;20494;-67
2021/05/29 02:40:44;;;;;;;9.77;4.60;;;20.00;57.60;;;;;;5012794;28;20030;-68
2021/05/29 02:43:10;;;;;;;10.57;4.47;;;20.10;57.90;;;;;;5031913;28;20126;-68
2021/05/29 02:45:39;;;;;;;15.05;4.75;;;20.00;57.90;;;;;;5033786;28;20025;-68
2021/05/29 02:48:08;;;;;;;12.10;4.78;;;20.00;57.90;;;;;;5033761;28;20033;-68
2021/05/29 02:50:34;;;;;;;13.48;4.82;;;20.00;57.80;;;;;;5033967;28;20030;-67
2021/05/29 02:53:00;;;;;;;11.45;4.93;;;20.10;57.70;;;;;;5019339;28;20036;-67
2021/05/29 02:55:26;;;;;;;11.95;5.45;;;20.10;57.50;;;;;;5014260;28;20033;-70
2021/05/29 02:57:56;;;;;;;13.23;5.25;;;20.10;57.60;;;;;;5012352;28;20026;-69
2021/05/29 03:00:28;;;;;;;13.70;5.38;;;20.00;57.80;;;;;;5023047;28;20026;-72
2021/05/29 03:02:54;;;;;;;12.73;5.05;;;20.00;57.50;;;;;;5023776;28;20033;-69
2021/05/29 03:05:21;;;;;;;11.93;5.30;;;20.00;57.60;;;;;;5013625;28;20022;-68
2021/05/29 03:07:47;;;;;;;11.13;4.80;;;20.00;57.70;;;;;;5013584;28;20033;-67
2021/05/29 03:10:14;;;;;;;15.38;5.13;;;19.90;57.70;;;;;;5012421;28;20099;-68
2021/05/29 03:12:41;;;;;;;18.23;5.75;;;19.80;57.80;;;;;;5018150;28;20033;-69
2021/05/29 03:15:10;;;;;;;16.23;5.57;;;19.90;57.60;;;;;;5033339;28;20025;-73
2021/05/29 03:17:36;;;;;;;12.43;4.55;;;19.90;58.10;;;;;;5033263;28;20032;-74
2021/05/29 03:20:05;;;;;;;12.27;4.82;;;19.80;58.40;;;;;;5032995;28;20060;-67
2021/05/29 03:22:30;;;;;;;13.88;5.40;;;19.80;58.30;;;;;;5032595;28;20037;-69
2021/05/29 03:24:56;;;;;;;9.55;4.10;;;19.80;58.50;;;;;;5013672;28;20363;-68
2021/05/29 03:27:22;;;;;;;10.77;5.40;;;19.80;58.30;;;;;;5013302;28;20107;-69
2021/05/29 03:29:47;;;;;;;11.00;4.70;;;19.80;58.40;;;;;;5032135;28;20025;-67
2021/05/29 03:32:13;;;;;;;11.00;5.10;;;19.90;58.50;;;;;;5031786;28;20104;-68
2021/05/29 03:34:39;;;;;;;13.27;5.18;;;19.90;58.60;;;;;;5017729;28;20065;-69
2021/05/29 03:37:05;;;;;;;10.82;4.80;;;19.90;58.50;;;;;;5013484;28;20058;-68
2021/05/29 03:39:30;;;;;;;13.20;4.55;;;19.90;58.50;;;;;;5013422;28;20021;-68
2021/05/29 03:41:56;;;;;;;10.77;4.65;;;19.80;58.70;;;;;;5013560;28;20046;-67
2021/05/29 03:44:22;;;;;;;14.15;4.85;;;19.80;58.90;;;;;;5023553;28;20048;-71
2021/05/29 03:46:47;;;;;;;11.40;4.32;;;19.80;58.90;;;;;;5033326;28;20466;-69
2021/05/29 03:49:13;;;;;;;16.40;4.53;;;19.80;58.80;;;;;;5033120;28;20061;-75
2021/05/29 03:51:39;;;;;;;11.52;4.40;;;19.80;58.30;;;;;;5033186;28;20420;-68
2021/05/29 03:54:05;;;;;;;12.38;4.75;;;19.80;58.20;;;;;;5027902;28;20037;-70
2021/05/29 03:56:30;;;;;;;11.07;4.45;;;19.80;58.20;;;;;;5013217;28;20022;-68
2021/05/29 03:58:56;;;;;;;11.85;3.80;;;19.90;58.10;;;;;;5013363;28;20356;-67
2021/05/29 04:01:22;;;;;;;10.90;4.13;;;19.80;58.10;;;;;;5013201;28;20018;-68
2021/05/29 04:03:47;;;;;;;12.32;4.60;;;19.80;58.30;;;;;;5013479;28;20045;-68
2021/05/29 04:06:14;;;;;;;13.32;4.60;;;19.70;58.30;;;;;;5032755;28;20037;-69
2021/05/29 04:08:41;;;;;;;12.65;4.95;;;19.80;58.40;;;;;;5032991;28;20049;-67
2021/05/29 04:11:07;;;;;;;10.52;4.35;;;19.80;58.00;;;;;;5032075;28;20062;-68
2021/05/29 04:13:33;;;;;;;11.38;4.00;;;19.80;58.40;;;;;;5037628;28;20077;-68
2021/05/29 04:16:00;;;;;;;13.15;4.68;;;19.80;58.20;;;;;;5022246;28;20038;-67
2021/05/29 04:18:26;;;;;;;20.20;5.30;;;19.70;57.80;;;;;;5015441;28;20379;-70
2021/05/29 04:20:51;;;;;;;11.73;4.28;;;19.70;58.10;;;;;;5016188;28;20053;-69
2021/05/29 04:23:17;;;;;;;11.82;4.97;;;19.80;58.10;;;;;;5028359;28;20118;-68
2021/05/29 04:25:43;;;;;;;11.07;4.30;;;19.80;58.10;;;;;;5026680;28;20034;-68
2021/05/29 04:28:09;;;;;;;11.35;4.00;;;19.80;57.90;;;;;;5016758;28;20045;-68
2021/05/29 04:30:34;;;;;;;12.23;4.28;;;19.90;58.10;;;;;;5016887;28;20028;-68
2021/05/29 04:33:00;;;;;;;11.65;4.38;;;19.90;57.70;;;;;;5016610;28;20030;-68
2021/05/29 04:35:27;;;;;;;14.35;4.38;;;19.90;57.70;;;;;;5020647;28;20057;-67
2021/05/29 04:37:52;;;;;;;9.60;4.35;;;19.90;57.90;;;;;;5036235;28;20056;-67
2021/05/29 04:40:22;;;;;;;16.27;4.80;;;19.80;57.60;;;;;;5036342;28;20474;-66
2021/05/29 04:42:49;;;;;;;14.13;4.85;;;19.90;57.30;;;;;;5036171;28;20108;-68
2021/05/29 04:45:15;;;;;;;11.82;4.55;;;19.80;57.70;;;;;;5035071;28;20045;-67
2021/05/29 04:47:42;;;;;;;12.60;4.60;;;19.80;57.70;;;;;;5016714;28;20022;-67
2021/05/29 04:50:10;;;;;;;12.40;4.25;;;19.80;57.50;;;;;;5017279;28;20478;-67
2021/05/29 04:52:37;;;;;;;11.40;4.18;;;19.80;57.80;;;;;;5017495;28;20026;-67
2021/05/29 04:55:05;;;;;;;12.63;5.10;;;19.80;57.80;;;;;;5017402;28;20537;-71
2021/05/29 04:57:30;;;;;;;11.55;4.80;;;19.80;57.80;;;;;;5017067;28;20042;-67
2021/05/29 04:59:56;;;;;;;11.35;4.63;;;19.80;57.80;;;;;;5016993;28;20025;-69
2021/05/29 05:02:22;;;;;;;13.02;4.90;;;19.80;57.40;;;;;;5016719;28;20037;-77
2021/05/29 05:04:48;;;;;;;12.27;4.90;;;19.80;57.30;;;;;;5032831;28;20041;-68
2021/05/29 05:07:14;;;;;;;10.63;4.40;;;19.60;56.90;;;;;;5024989;28;20105;-71
2021/05/29 05:09:41;;;;;;;8.93;4.72;;;19.70;57.30;;;;;;5015413;28;20054;-69
2021/05/29 05:12:08;;;;;;;12.15;4.95;;;19.80;57.00;;;;;;5016028;28;20033;-69
2021/05/29 05:14:33;;;;;;;12.23;5.13;;;20.00;56.80;;;;;;5021301;28;20021;-69
2021/05/29 05:17:00;;;;;;;10.00;4.70;;;20.20;56.40;;;;;;5035369;28;20496;-72
2021/05/29 05:19:26;;;;;;;15.68;5.13;;;20.30;55.50;;;;;;5035455;28;20036;-68
2021/05/29 05:21:52;;;;;;;13.02;4.75;;;20.30;55.70;;;;;;5035527;28;20033;-75
2021/05/29 05:24:18;;;;;;;13.98;5.07;;;20.50;55.70;;;;;;5017530;28;20122;-80
2021/05/29 05:26:44;;;;;;;10.27;4.63;;;20.80;55.20;;;;;;5035058;28;20018;-73
2021/05/29 05:29:11;;;;;;;10.35;4.38;;;21.10;54.30;;;;;;5035343;28;20478;-71
2021/05/29 05:31:39;;;;;;;10.55;4.07;;;21.40;54.20;;;;;;5031221;28;20046;-75
2021/05/29 05:34:09;;;;;;;16.65;4.10;;;21.70;54.00;;;;;;5014490;28;20105;-69
2021/05/29 05:36:36;;;;;;;8.45;3.83;;;21.80;52.80;;;;;;5022131;28;20472;-67
2021/05/29 05:39:08;;;;;;;11.85;4.00;;;22.10;53.20;;;;;;5017979;28;20045;-67
2021/05/29 05:41:34;;;;;;;10.80;3.65;;;22.20;53.30;;;;;;5014363;28;20502;-68
2021/05/29 05:43:59;;;;;;;13.95;4.63;;;22.30;52.70;;;;;;5015140;28;20050;-72
2021/05/29 05:46:30;;;;;;;12.73;4.07;;;22.50;52.60;;;;;;5015256;28;20033;-75
2021/05/29 05:48:55;;;;;;;10.90;4.20;;;22.70;52.30;;;;;;5027683;28;20029;-69
2021/05/29 05:51:24;;;;;;;10.80;4.22;;;22.90;52.30;;;;;;5034768;28;20034;-74
2021/05/29 05:53:49;;;;;;;11.93;4.20;;;23.10;50.90;;;;;;5034926;28;20025;-67
2021/05/29 05:56:25;;;;;;;12.10;4.15;;;23.20;51.40;;;;;;5034843;28;20029;-73
2021/05/29 05:58:56;;;;;;;13.95;3.92;;;23.30;51.30;;;;;;5024809;28;20376;-71
2021/05/29 06:01:23;;;;;;;14.35;4.35;;;23.50;51.10;;;;;;5015112;28;20021;-68
2021/05/29 06:03:48;;;;;;;18.30;4.95;;;23.80;50.90;;;;;;5014820;28;20455;-68
2021/05/29 06:06:14;;;;;;;10.82;4.13;;;23.90;50.20;;;;;;5032293;28;20068;-70
2021/05/29 06:08:40;;;;;;;8.95;4.05;;;24.00;49.90;;;;;;5029172;28;20533;-68
2021/05/29 06:11:05;;;;;;;15.65;4.35;;;24.10;49.90;;;;;;5014905;28;20427;-68
2021/05/29 06:21:23;;;;;;;14.75;4.47;;;24.60;48.90;;;;;;5034295;28;20137;-68
2021/05/29 06:23:49;;;;;;;11.15;4.25;;;24.80;48.50;;;;;;5035235;28;20029;-71
2021/05/29 06:26:16;;;;;;;16.65;4.15;;;25.00;48.20;;;;;;5035012;28;20552;-68
2021/05/29 06:28:44;;;;;;;9.43;3.67;;;25.10;48.10;;;;;;5029195;28;20467;-69
2021/05/29 06:31:09;;;;;;;10.02;3.67;;;25.20;47.80;;;;;;5022603;28;20540;-67
2021/05/29 06:33:35;;;;;;;10.88;3.58;;;25.30;47.70;;;;;;5033917;28;20033;-68
2021/05/29 06:36:01;;;;;;;13.38;3.63;;;25.50;47.20;;;;;;5033344;28;20018;-68
2021/05/29 06:38:26;;;;;;;9.02;4.03;;;25.60;47.00;;;;;;5033730;28;20025;-68
2021/05/29 06:40:52;;;;;;;9.05;3.78;;;25.70;46.60;;;;;;5017120;28;20061;-68
2021/05/29 06:43:18;;;;;;;12.45;3.30;;;25.80;46.30;;;;;;5034008;28;20029;-70
2021/05/29 06:45:46;;;;;;;12.52;4.20;;;25.70;46.40;;;;;;5034318;28;20363;-68
2021/05/29 06:48:14;;;;;;;12.15;4.05;;;25.80;46.30;;;;;;5035254;28;20080;-67
2021/05/29 06:50:47;;;;;;;10.57;3.97;;;25.80;46.30;;;;;;5034462;28;20152;-68
2021/05/29 06:53:14;;;;;;;10.50;3.60;;;25.90;46.10;;;;;;5034409;28;20029;-67
2021/05/29 07:01:08;;;;;;;8.52;3.53;;;26.10;43.30;;;;;;5014385;28;19971;-68
2021/05/29 07:03:34;;;;;;;11.80;3.67;;;26.20;45.50;;;;;;5013722;28;20117;-70
2021/05/29 07:06:00;;;;;;;13.10;4.20;;;26.30;45.30;;;;;;5014039;28;20030;-68
2021/05/29 07:08:26;;;;;;;13.43;3.53;;;26.30;45.10;;;;;;5013392;28;20352;-67
2021/05/29 07:10:51;;;;;;;6.43;3.17;;;26.30;45.30;;;;;;5031723;28;20120;-69
2021/05/29 07:13:17;;;;;;;13.43;3.65;;;26.50;45.50;;;;;;5033425;28;20458;-69
2021/05/29 07:15:43;;;;;;;14.85;3.97;;;26.60;44.90;;;;;;5033502;28;20060;-66
2021/05/29 07:18:14;;;;;;;10.57;3.50;;;26.50;44.50;;;;;;5033857;28;20026;-71
2021/05/29 07:20:41;;;;;;;10.55;4.28;;;26.60;44.90;;;;;;5019589;28;20148;-70
2021/05/29 07:23:08;;;;;;;12.88;4.18;;;26.70;44.50;;;;;;5013785;28;20018;-69
2021/05/29 07:25:40;;;;;;;15.45;4.05;;;26.60;44.40;;;;;;5013662;28;20056;-70
2021/05/29 07:28:06;;;;;;;11.05;3.83;;;26.50;44.30;;;;;;5012263;28;20044;-67
2021/05/29 07:30:31;;;;;;;10.05;3.63;;;26.50;45.30;;;;;;5014095;28;20387;-66
2021/05/29 07:32:57;;;;;;;8.95;3.58;;;26.50;44.40;;;;;;5013161;28;20387;-71
2021/05/29 07:35:23;;;;;;;11.45;3.83;;;26.60;44.60;;;;;;5013771;28;20022;-73
2021/05/29 07:37:49;;;;;;;12.20;4.60;;;26.80;44.80;;;;;;5013185;28;20026;-76
2021/05/29 07:40:15;;;;;;;11.52;3.65;;;26.90;44.50;;;;;;5015667;28;20041;-76
2021/05/29 07:42:44;;;;;;;13.18;3.95;;;27.00;44.40;;;;;;5013957;28;20491;-72
2021/05/29 07:45:16;;;;;;;10.18;3.72;;;27.00;43.70;;;;;;5013833;28;20038;-76
2021/05/29 07:47:43;;;;;;;13.13;3.60;;;27.10;44.80;;;;;;5016766;28;20026;-78
2021/05/29 07:50:10;;;;;;;11.52;3.47;;;27.10;44.80;;;;;;5017629;28;20030;-83
2021/05/29 07:52:38;;;;;;;10.15;3.20;;;27.10;43.90;;;;;;5017376;28;20131;-74
2021/05/29 07:55:07;;;;;;;12.85;3.17;;;27.10;44.00;;;;;;5023373;28;20025;-76
2021/05/29 07:57:33;;;;;;;9.23;3.38;;;27.00;43.10;;;;;;5036716;28;20068;-81
2021/05/29 07:59:59;;;;;;;12.18;3.72;;;26.90;44.20;;;;;;5037982;28;20038;-71
2021/05/29 08:02:31;;;;;;;9.65;3.75;;;26.80;44.30;;;;;;5035481;28;20084;-80
2021/05/29 08:04:57;;;;;;;16.30;3.97;;;26.60;44.20;;;;;;5036972;28;20033;-73
2021/05/29 08:07:24;;;;;;;18.58;4.70;;;26.60;44.20;;;;;;5026625;28;20107;-74
2021/05/29 08:09:55;;;;;;;17.85;4.00;;;26.60;44.20;;;;;;5035567;28;20039;-78
2021/05/29 08:12:24;;;;;;;17.00;4.63;;;26.60;42.80;;;;;;5034779;28;20466;-68
2021/05/29 08:14:50;;;;;;;13.23;3.85;;;26.60;42.80;;;;;;5035055;28;20064;-69
2021/05/29 08:17:18;;;;;;;12.65;4.30;;;26.60;43.00;;;;;;5028299;28;20025;-68
2021/05/29 08:19:44;;;;;;;11.38;3.08;;;26.50;42.40;;;;;;5016319;28;20144;-67
2021/05/29 08:22:11;;;;;;;16.80;5.43;;;26.50;43.40;;;;;;5015020;28;20129;-75
2021/05/29 08:24:37;;;;;;;11.02;3.50;;;26.50;42.50;;;;;;5015151;28;20069;-67
2021/05/29 08:27:05;;;;;;;9.93;3.85;;;26.40;42.90;;;;;;5019424;28;20061;-68
2021/05/29 08:29:31;;;;;;;18.00;4.43;;;26.30;42.70;;;;;;5035260;28;20389;-70
2021/05/29 08:32:04;;;;;;;14.55;3.85;;;26.30;42.70;;;;;;5034496;28;20025;-70
2021/05/29 08:34:30;;;;;;;11.07;3.10;;;26.20;42.30;;;;;;5035997;28;20027;-67
2021/05/29 08:36:58;;;;;;;15.07;5.03;;;26.20;41.80;;;;;;5035816;28;20029;-79
2021/05/29 08:39:27;;;;;;;12.73;3.72;;;26.10;40.70;;;;;;5016439;28;20053;-69
2021/05/29 08:41:54;;;;;;;16.52;3.72;;;26.20;41.70;;;;;;5014693;28;20467;-70
2021/05/29 08:44:19;;;;;;;11.77;4.13;;;26.20;41.90;;;;;;5016763;28;20125;-75
2021/05/29 08:46:45;;;;;;;19.27;4.63;;;26.10;41.70;;;;;;5033544;28;20582;-73
2021/05/29 08:49:11;;;;;;;9.00;3.40;;;26.10;41.70;;;;;;5035643;28;20021;-67
2021/05/29 08:51:37;;;;;;;23.90;5.78;;;26.10;41.80;;;;;;5034124;28;20028;-69
2021/05/29 08:54:03;;;;;;;7.40;2.70;;;26.10;42.20;;;;;;5030419;28;20033;-74
2021/05/29 08:56:29;;;;;;;9.82;3.78;;;26.10;41.60;;;;;;5015474;28;20026;-67
2021/05/29 08:58:56;;;;;;;12.23;3.90;;;26.20;42.00;;;;;;5015368;28;20423;-67
2021/05/29 09:01:24;;;;;;;10.32;3.03;;;26.20;42.50;;;;;;5015620;28;20060;-67
2021/05/29 09:03:52;;;;;;;9.27;2.95;;;26.20;42.00;;;;;;5016701;28;20066;-66
2021/05/29 09:06:35;;;;;;;15.90;4.93;;;26.30;42.00;;;;;;5015497;28;20121;-69
2021/05/29 09:09:05;;;;;;;9.07;3.22;;;26.30;42.80;;;;;;5014534;28;20034;-67
2021/05/29 09:11:36;;;;;;;10.23;3.85;;;26.30;42.00;;;;;;5015399;28;20463;-68
2021/05/29 09:14:26;;;;;;;12.75;4.10;;;26.30;41.90;;;;;;5019891;28;20033;-73
2021/05/29 09:17:15;;;;;;;9.63;3.90;;;26.40;41.40;;;;;;5031580;28;20117;-68
2021/05/29 09:20:04;;;;;;;9.40;2.80;;;26.40;40.80;;;;;;5034120;28;20374;-69
2021/05/29 09:22:40;;;;;;;7.85;2.90;;;26.40;39.70;;;;;;5024168;28;20041;-77
2021/05/29 09:25:16;;;;;;;11.40;2.63;;;26.40;39.50;;;;;;5024187;28;20038;-70
2021/05/29 09:27:58;;;;;;;7.68;2.22;;;26.40;39.50;;;;;;5022511;28;20034;-74
2021/05/29 09:30:39;;;;;;;10.25;2.83;;;26.50;38.80;;;;;;5020020;28;20057;-78
2021/05/29 09:33:13;;;;;;;15.65;3.55;;;26.50;40.00;;;;;;5033521;28;20028;-74
2021/05/29 09:35:40;;;;;;;12.55;2.65;;;26.60;40.40;;;;;;5022245;28;20076;-77
2021/05/29 09:38:07;;;;;;;8.18;2.70;;;26.50;38.20;;;;;;5030186;28;20025;-73
2021/05/29 09:40:33;;;;;;;8.40;2.25;;;26.60;38.70;;;;;;5033719;28;20056;-75
2021/05/29 09:43:07;;;;;;;7.75;1.90;;;26.70;38.30;;;;;;5034285;28;20021;-71
2021/05/29 09:45:34;;;;;;;7.40;1.90;;;26.70;37.00;;;;;;5024367;28;20044;-77
2021/05/29 09:48:21;;;;;;;11.88;2.50;;;26.70;36.60;;;;;;5022384;28;20032;-80
2021/05/29 09:52:44;;;;;;;12.77;4.00;;;26.70;41.70;;;;;;5067829;28;20306;-74
2021/05/29 09:55:13;;;;;;;8.43;2.78;;;26.80;38.40;;;;;;5049445;27;21307;-77
2021/05/29 09:57:58;;;;;;;7.85;2.85;;;26.80;38.10;;;;;;5060173;27;20029;-72
2021/05/29 10:00:39;;;;;;;11.70;2.90;;;26.80;37.00;;;;;;5046700;27;20065;-72
2021/05/29 10:03:13;;;;;;;9.90;3.53;;;26.80;38.50;;;;;;5047707;27;20037;-80
2021/05/29 10:05:43;;;;;;;10.98;2.80;;;26.90;38.70;;;;;;5073412;27;20033;-80
2021/05/29 10:08:16;;;;;;;9.50;3.00;;;26.90;38.90;;;;;;5029796;28;20018;-74
2021/05/29 10:10:42;;;;;;;5.30;2.33;;;27.00;39.70;;;;;;5117078;27;20118;-76
2021/05/29 10:13:08;;;;;;;11.02;3.10;;;27.10;40.20;;;;;;5080074;27;20112;-73
2021/05/29 10:15:35;;;;;;;6.35;2.80;;;27.10;40.40;;;;;;5038587;28;20029;-72
2021/05/29 10:18:03;;;;;;;7.55;2.78;;;27.20;40.70;;;;;;5073160;27;20094;-66
2021/05/29 10:20:35;;;;;;;6.70;2.72;;;27.40;40.60;;;;;;5026848;28;20034;-70
2021/05/29 10:23:00;;;;;;;8.18;2.95;;;27.40;40.60;;;;;;5010158;28;20037;-70
2021/05/29 10:25:26;;;;;;;9.32;2.95;;;27.50;40.70;;;;;;5045376;27;20026;-75
2021/05/29 10:27:55;;;;;;;13.23;3.38;;;27.60;41.00;;;;;;5045960;28;20158;-68
2021/05/29 10:30:24;;;;;;;10.70;3.47;;;27.80;40.40;;;;;;5046268;28;20053;-70
2021/05/29 10:33:15;;;;;;;8.40;2.85;;;27.80;40.00;;;;;;5043804;28;20114;-68
2021/05/29 10:35:43;;;;;;;9.00;3.15;;;27.90;40.30;;;;;;5011676;28;20053;-64
2021/05/29 10:38:10;;;;;;;6.70;2.95;;;27.90;40.20;;;;;;5045711;28;20397;-67
2021/05/29 10:40:51;;;;;;;11.07;2.85;;;27.90;40.20;;;;;;5061389;28;20018;-65
2021/05/29 10:43:29;;;;;;;10.13;2.88;;;28.10;39.80;;;;;;5042601;28;20363;-64
2021/05/29 10:45:55;;;;;;;8.23;3.00;;;28.20;39.50;;;;;;5043849;28;20411;-65
2021/05/29 10:48:25;;;;;;;7.30;2.90;;;28.30;39.50;;;;;;5026066;28;20033;-67
2021/05/29 10:50:57;;;;;;;10.52;2.90;;;28.40;39.60;;;;;;5026090;28;20125;-69
2021/05/29 10:53:55;;;;;;;7.50;2.30;;;28.40;39.40;;;;;;5026160;28;20030;-64
2021/05/29 10:56:23;;;;;;;11.50;2.83;;;28.30;38.50;;;;;;5028876;28;20464;-68
2021/05/29 10:59:19;;;;;;;7.45;3.10;;;28.30;38.30;;;;;;5046277;28;20108;-67
2021/05/29 11:01:45;;;;;;;10.82;2.78;;;28.30;38.40;;;;;;5038077;28;20090;-71
2021/05/29 11:04:23;;;;;;;13.38;3.50;;;28.40;38.10;;;;;;5013097;28;20030;-80
2021/05/29 11:07:00;;;;;;;5.93;2.42;;;28.40;40.40;;;;;;5016475;28;20014;-77
2021/05/29 11:09:32;;;;;;;13.35;4.68;;;28.40;37.10;;;;;;5023573;28;20083;-73
2021/05/29 11:12:02;;;;;;;16.90;4.63;;;28.50;37.30;;;;;;5063046;27;20061;-71
2021/05/29 11:14:49;;;;;;;9.32;3.08;;;28.50;38.90;;;;;;5036031;28;20741;-79
2021/05/29 11:17:17;;;;;;;10.13;2.95;;;28.50;35.80;;;;;;5030508;28;20041;-71
2021/05/29 11:19:59;;;;;;;8.02;2.05;;;28.50;35.40;;;;;;5015072;28;20475;-66
2021/05/29 11:22:25;;;;;;;5.93;2.15;;;28.50;35.10;;;;;;5016297;28;20061;-65
2021/05/29 11:24:54;;;;;;;12.85;2.78;;;28.50;35.50;;;;;;5013103;28;20030;-70
2021/05/29 11:27:26;;;;;;;6.72;2.70;;;28.70;35.50;;;;;;5014852;28;20150;-80
2021/05/29 11:30:03;;;;;;;15.80;3.33;;;28.70;35.70;;;;;;5036945;28;20076;-76
2021/05/29 11:35:34;;;;;;;8.00;2.25;;;28.80;35.50;;;;;;5032915;28;20026;-79
2021/05/29 11:38:02;;;;;;;7.07;2.70;;;28.80;35.90;;;;;;5033078;28;20081;-82
2021/05/29 11:40:54;;;;;;;5.82;2.17;;;28.90;36.30;;;;;;5034371;28;20025;-77
2021/05/29 11:43:50;;;;;;;4.47;1.60;;;28.90;35.70;;;;;;5014189;28;20486;-72
2021/05/29 11:46:15;;;;;;;5.40;2.17;;;28.80;35.70;;;;;;5032312;28;20486;-80
2021/05/29 11:49:03;;;;;;;5.43;2.10;;;28.80;35.90;;;;;;5031672;28;20051;-78
2021/05/29 11:51:35;;;;;;;6.80;2.47;;;28.70;36.00;;;;;;5016626;28;20050;-76
2021/05/29 11:54:31;;;;;;;5.07;1.90;;;28.70;35.80;;;;;;5024403;28;20433;-81
2021/05/29 11:56:57;;;;;;;6.20;2.13;;;28.70;35.30;;;;;;4979749;28;20076;-81
2021/05/29 11:59:23;;;;;;;8.13;2.78;;;28.70;35.40;;;;;;4984026;28;20038;-83
2021/05/29 12:01:53;;;;;;;7.00;2.63;;;28.60;35.50;;;;;;4975425;28;20035;-74
2021/05/29 12:04:22;;;;;;;9.45;2.97;;;28.70;35.60;;;;;;5024067;28;20053;-73
2021/05/29 12:06:58;;;;;;;8.73;2.50;;;28.70;35.90;;;;;;4992533;28;20091;-81
2021/05/29 12:09:29;;;;;;;11.27;2.50;;;28.70;35.90;;;;;;4984006;28;20023;-79
2021/05/29 12:11:59;;;;;;;11.07;2.30;;;28.70;35.90;;;;;;4973491;28;20045;-80
2021/05/29 12:14:37;;;;;;;8.25;2.60;;;28.70;36.40;;;;;;4972491;28;20454;-80
2021/05/29 12:17:16;;;;;;;8.40;2.17;;;28.80;36.10;;;;;;4977210;28;20419;-76
2021/05/29 12:19:50;;;;;;;6.55;2.42;;;28.70;35.90;;;;;;4977154;28;20027;-79
2021/05/29 12:22:23;;;;;;;9.63;2.20;;;28.60;35.80;;;;;;4973159;28;20055;-76
2021/05/29 12:24:51;;;;;;;5.00;1.70;;;28.50;35.60;;;;;;4976159;28;20043;-78
2021/05/29 12:27:23;;;;;;;5.07;2.25;;;28.60;35.80;;;;;;4973474;28;20084;-77
2021/05/29 12:29:55;;;;;;;8.93;2.50;;;28.70;35.70;;;;;;4985230;28;20030;-80
2021/05/29 12:32:30;;;;;;;6.82;2.58;;;28.80;35.30;;;;;;4992373;28;20122;-82
2021/05/29 12:34:56;;;;;;;8.27;2.10;;;28.70;35.80;;;;;;5023744;28;20072;-79
2021/05/29 12:37:30;;;;;;;4.07;2.03;;;28.70;36.40;;;;;;4992122;28;20038;-78
2021/05/29 12:39:57;;;;;;;6.35;2.03;;;28.80;36.90;;;;;;4981321;28;20484;-77
2021/05/29 12:42:30;;;;;;;6.70;1.90;;;28.80;37.30;;;;;;4973110;28;20079;-81
2021/05/29 12:45:05;;;;;;;7.82;1.85;;;28.80;36.50;;;;;;4972949;28;20383;-78
2021/05/29 12:47:37;;;;;;;7.53;1.85;;;28.80;36.30;;;;;;4972783;28;20035;-74
2021/05/29 12:50:16;;;;;;;4.68;2.08;;;28.90;36.40;;;;;;4981313;28;20031;-78
2021/05/29 12:52:42;;;;;;;9.43;2.67;;;28.90;35.90;;;;;;4984769;28;20050;-76
2021/05/29 12:55:18;;;;;;;5.40;1.90;;;28.80;35.80;;;;;;4972916;28;20027;-73
2021/05/29 12:57:43;;;;;;;6.75;1.90;;;28.70;35.70;;;;;;4972680;28;20050;-73
2021/05/29 13:00:21;;;;;;;6.68;1.75;;;28.70;35.80;;;;;;4978899;28;20025;-73
2021/05/29 13:08:52;;;;;;;8.07;2.28;;;28.90;35.60;;;;;;4992247;28;20041;-84
2021/05/29 13:11:29;;;;;;;7.47;2.00;;;29.00;35.70;;;;;;4979184;28;20065;-75
2021/05/29 13:14:11;;;;;;;6.35;1.80;;;29.00;35.60;;;;;;4971987;28;20026;-70